Stuttgart Airport

EDDS · 巴登-符腾堡, 德国

罗盘
风向 的 风向 的 风向 到 风向 250° Stuttgart Airport 7/25
风: 4 kt, 2 beaufort

4 kt

改变
0 1.000 2.000 3.000 4.000 5.000
BKN 1.900 ft
METAR EDDS 071320Z AUTO 25004KT 190V320 9999 BKN019 04/00 Q1015 NOSIG

METAR Stuttgart Airport - EDDS/STR

Stuttgart Airport是,德国中的大型机场。 该机场有一条跑道: 7/25. 该领域的国际民航组织标志是EDDS 它的国际航空运输协会代码是STR.

这份报告是针对2022年12月7日 14:20, 当地时间在Stuttgart Airport进行的。

机场观察

风向为250°,速度为4 kt。 风向在190°和320°之间变化。

可见度为10 km 或者更多。

有碎云在1.900 ft的高度。 破损或更高的上限为1.900 ft。

温度为4 °C,阵风为1 °C。 海平面上的气压为1015 hPa (QNH)。

白天

今天,太阳从08:01升起,在16:27降落。 这适用于Stuttgart Airport,世界夏令时可能有所不同。 当地时间与世界标准时间之间的时差为+1 小时。 当前,没有夏令时有效。

公司介绍

在这个机场,你可以找到飞行学校。 本场上唯一已知的公司是Flugbetrieb Aero Beta。

体会

到Vliegles.nl去找飞行课程,跳伞和其他飞行体验。 浏览页面,了解Stuttgart Airport附近所有可用的活动。 你也可以使用搜索功能来寻找你所在地附近的特定飞行课程、跳伞或其他飞行体验。

跑道

Id 标题 侧风 逆风 侧风 %
7/25 072°-252° 4 kt 3 %

逆风成分最大的方向会被突出显示,并用于横风计算。 这并不一定意味着这个方向在使用。

乌云

1.900 ft BKN 碎云

温度 & 天气

温度 4 °C
露点 0 °C
相对湿度 75%
风寒 1 °C
Kp-index 5 (0-9)

白天

日出
08:01
中午
12:14
日落
16:27 (1:29)

小工具

你想在你的网站上有一个关于Stuttgart Airport的当前航空天气(METAR)的小部件吗?

显示HTML代码

我们和第三方通过cookies跟踪您在我们网站上的互联网行为。如果你继续,我们认为你同意我们的饼干政策